Shoofly — WDG2561 — position and weather

sailwx.info

Track history (hours):
 
Tides and Currents Weather Stations Pressure Air Temp Water Temp Dewpoint Dewpoint Depression Visibility Wind Speed Wind Dir Waves Ship Positions

Shoofly

Owner: Palmatier, Thomas M, San Rafael, CA. More information available from US FCC via Universal Licensing System and Coast Guard Vessel Documentation Center.

Last reported at 2017-Oct-14 18:28 UTC. Time now 2017-Oct-17 06:09 UTC.
Position N 33°37' W 117°55'.

Length 13 m.

Type: Pleasure craft. MMSI: 367516880.

Date/timePositionNaut miles runAvg speedWind from/ knotsBaromVisibWave heightAir tempDewpointWater temp
2017-Oct-14 18:28N 33°37' W 117°55'  
2017-Oct-09 17:58N 33°37' W 117°54'24 1.2
2017-Oct-08 21:03N 33°25' W 118°20'0 6.7
2017-Oct-08 21:00N 33°24' W 118°20'1 2.7
2017-Oct-08 20:29N 33°25' W 118°22'2 2.9
2017-Oct-08 19:45N 33°26' W 118°23'1 3.8
2017-Oct-08 19:28N 33°27' W 118°23'3 5.4
2017-Oct-08 18:59N 33°26' W 118°26'2 4.3
2017-Oct-08 18:27N 33°28' W 118°27'1 2.4
2017-Oct-08 17:55N 33°28' W 118°29'  
2017-Oct-06 00:25N 33°27' W 118°30'2 5.1
2017-Oct-05 23:58N 33°29' W 118°30'9 7.4
2017-Oct-05 22:48N 33°38' W 118°29'8 6.8
2017-Oct-05 21:34N 33°46' W 118°29'  
Track history (hours):
 
Tides and Currents Weather Stations Pressure Air Temp Water Temp Dewpoint Dewpoint Depression Visibility Wind Speed Wind Dir Waves Ship Positions

Shoofly

Owner: Palmatier, Thomas M, San Rafael, CA. More information available from US FCC via Universal Licensing System and Coast Guard Vessel Documentation Center.

Last reported at 2017-Oct-14 18:28 UTC. Time now 2017-Oct-17 06:09 UTC.
Position N 33°37' W 117°55'.

Length 13 m.

Type: Pleasure craft. MMSI: 367516880.

Date/timePositionNaut miles runAvg speedWind from/ knotsBaromVisibWave heightAir tempDewpointWater temp
2017-Oct-14 18:28N 33°37' W 117°55'  
2017-Oct-09 17:58N 33°37' W 117°54'24 1.2
2017-Oct-08 21:03N 33°25' W 118°20'0 6.7
2017-Oct-08 21:00N 33°24' W 118°20'1 2.7
2017-Oct-08 20:29N 33°25' W 118°22'2 2.9
2017-Oct-08 19:45N 33°26' W 118°23'1 3.8
2017-Oct-08 19:28N 33°27' W 118°23'3 5.4
2017-Oct-08 18:59N 33°26' W 118°26'2 4.3
2017-Oct-08 18:27N 33°28' W 118°27'1 2.4
2017-Oct-08 17:55N 33°28' W 118°29'  
2017-Oct-06 00:25N 33°27' W 118°30'2 5.1
2017-Oct-05 23:58N 33°29' W 118°30'9 7.4
2017-Oct-05 22:48N 33°38' W 118°29'8 6.8
2017-Oct-05 21:34N 33°46' W 118°29'  

Dump ship's entire track history